sensor_id;sensor_type;location;lat;lon;timestamp;P1;durP1;ratioP1;P2;durP2;ratioP2
249;SDS011;109;19.806;-70.704;2023-03-30T00:00:05;31.77;;;5.97;;
249;SDS011;109;19.806;-70.704;2023-03-30T00:02:46;18.40;;;5.03;;
249;SDS011;109;19.806;-70.704;2023-03-30T00:05:15;18.30;;;5.23;;
249;SDS011;109;19.806;-70.704;2023-03-30T00:07:42;28.57;;;5.30;;
249;SDS011;109;19.806;-70.704;2023-03-30T00:10:11;30.30;;;5.10;;
249;SDS011;109;19.806;-70.704;2023-03-30T00:12:42;31.37;;;5.47;;
249;SDS011;109;19.806;-70.704;2023-03-30T00:15:12;20.33;;;4.90;;
249;SDS011;109;19.806;-70.704;2023-03-30T00:17:40;16.33;;;5.10;;
249;SDS011;109;19.806;-70.704;2023-03-30T00:20:07;18.67;;;4.90;;
249;SDS011;109;19.806;-70.704;2023-03-30T00:22:43;27.67;;;6.30;;
249;SDS011;109;19.806;-70.704;2023-03-30T00:25:11;17.40;;;4.80;;
249;SDS011;109;19.806;-70.704;2023-03-30T00:27:39;22.33;;;5.40;;
249;SDS011;109;19.806;-70.704;2023-03-30T00:30:08;22.50;;;6.07;;
249;SDS011;109;19.806;-70.704;2023-03-30T00:32:37;27.57;;;6.50;;
249;SDS011;109;19.806;-70.704;2023-03-30T00:35:03;26.07;;;5.83;;
249;SDS011;109;19.806;-70.704;2023-03-30T00:37:30;20.80;;;5.73;;
249;SDS011;109;19.806;-70.704;2023-03-30T00:39:57;22.77;;;5.70;;
249;SDS011;109;19.806;-70.704;2023-03-30T00:42:24;26.50;;;6.90;;
249;SDS011;109;19.806;-70.704;2023-03-30T00:45:01;23.43;;;6.13;;
249;SDS011;109;19.806;-70.704;2023-03-30T00:47:41;20.37;;;5.87;;
249;SDS011;109;19.806;-70.704;2023-03-30T00:50:36;18.27;;;6.10;;
249;SDS011;109;19.806;-70.704;2023-03-30T00:53:19;22.57;;;6.03;;
249;SDS011;109;19.806;-70.704;2023-03-30T00:55:49;30.77;;;6.33;;
249;SDS011;109;19.806;-70.704;2023-03-30T00:58:19;23.83;;;6.03;;
249;SDS011;109;19.806;-70.704;2023-03-30T01:00:54;18.57;;;6.00;;
249;SDS011;109;19.806;-70.704;2023-03-30T01:03:26;16.33;;;5.87;;
249;SDS011;109;19.806;-70.704;2023-03-30T01:06:06;21.00;;;5.97;;
249;SDS011;109;19.806;-70.704;2023-03-30T01:08:33;26.83;;;6.33;;
249;SDS011;109;19.806;-70.704;2023-03-30T01:11:08;15.73;;;5.30;;
249;SDS011;109;19.806;-70.704;2023-03-30T01:13:37;18.57;;;5.67;;
249;SDS011;109;19.806;-70.704;2023-03-30T01:16:26;22.20;;;5.83;;
249;SDS011;109;19.806;-70.704;2023-03-30T01:21:54;17.23;;;5.77;;
249;SDS011;109;19.806;-70.704;2023-03-30T01:27:10;18.87;;;5.40;;
249;SDS011;109;19.806;-70.704;2023-03-30T01:46:43;14.20;;;6.70;;
249;SDS011;109;19.806;-70.704;2023-03-30T01:52:26;15.20;;;7.40;;
249;SDS011;109;19.806;-70.704;2023-03-30T01:55:17;18.43;;;7.00;;
249;SDS011;109;19.806;-70.704;2023-03-30T01:58:02;19.40;;;7.80;;
249;SDS011;109;19.806;-70.704;2023-03-30T02:00:52;15.40;;;7.50;;
249;SDS011;109;19.806;-70.704;2023-03-30T02:03:25;15.63;;;5.80;;
249;SDS011;109;19.806;-70.704;2023-03-30T02:06:03;12.83;;;6.03;;
249;SDS011;109;19.806;-70.704;2023-03-30T02:08:57;17.63;;;6.70;;
249;SDS011;109;19.806;-70.704;2023-03-30T02:11:25;17.97;;;6.47;;
249;SDS011;109;19.806;-70.704;2023-03-30T02:14:04;19.63;;;6.60;;
249;SDS011;109;19.806;-70.704;2023-03-30T02:16:50;12.87;;;5.73;;
249;SDS011;109;19.806;-70.704;2023-03-30T02:19:28;21.23;;;7.70;;
249;SDS011;109;19.806;-70.704;2023-03-30T02:21:56;15.10;;;6.63;;
249;SDS011;109;19.806;-70.704;2023-03-30T02:24:30;8.93;;;5.40;;
249;SDS011;109;19.806;-70.704;2023-03-30T02:26:59;20.97;;;7.10;;
249;SDS011;109;19.806;-70.704;2023-03-30T02:29:33;16.17;;;6.27;;
249;SDS011;109;19.806;-70.704;2023-03-30T02:32:37;22.83;;;7.10;;
249;SDS011;109;19.806;-70.704;2023-03-30T02:43:25;14.40;;;6.93;;
249;SDS011;109;19.806;-70.704;2023-03-30T02:52:15;21.13;;;8.30;;
249;SDS011;109;19.806;-70.704;2023-03-30T02:58:16;17.50;;;7.03;;
249;SDS011;109;19.806;-70.704;2023-03-30T03:01:57;21.00;;;7.53;;
249;SDS011;109;19.806;-70.704;2023-03-30T03:04:31;20.70;;;7.53;;
249;SDS011;109;19.806;-70.704;2023-03-30T03:07:22;16.77;;;6.90;;
249;SDS011;109;19.806;-70.704;2023-03-30T03:09:56;28.93;;;7.10;;
249;SDS011;109;19.806;-70.704;2023-03-30T03:12:23;20.70;;;7.30;;
249;SDS011;109;19.806;-70.704;2023-03-30T03:14:56;23.07;;;7.00;;
249;SDS011;109;19.806;-70.704;2023-03-30T03:17:23;21.60;;;7.20;;
249;SDS011;109;19.806;-70.704;2023-03-30T03:20:03;15.53;;;6.23;;
249;SDS011;109;19.806;-70.704;2023-03-30T03:22:37;16.80;;;6.33;;
249;SDS011;109;19.806;-70.704;2023-03-30T03:25:04;16.27;;;6.50;;
249;SDS011;109;19.806;-70.704;2023-03-30T03:28:10;13.37;;;6.27;;
249;SDS011;109;19.806;-70.704;2023-03-30T03:30:50;18.90;;;7.57;;
249;SDS011;109;19.806;-70.704;2023-03-30T03:33:31;21.20;;;6.93;;
249;SDS011;109;19.806;-70.704;2023-03-30T03:36:18;16.73;;;6.30;;
249;SDS011;109;19.806;-70.704;2023-03-30T03:38:52;18.40;;;7.20;;
249;SDS011;109;19.806;-70.704;2023-03-30T03:41:19;26.57;;;7.20;;
249;SDS011;109;19.806;-70.704;2023-03-30T03:43:53;17.03;;;7.80;;
249;SDS011;109;19.806;-70.704;2023-03-30T03:46:20;14.80;;;7.40;;
249;SDS011;109;19.806;-70.704;2023-03-30T03:48:53;16.07;;;7.57;;
249;SDS011;109;19.806;-70.704;2023-03-30T03:51:20;27.47;;;7.47;;
249;SDS011;109;19.806;-70.704;2023-03-30T03:53:53;15.43;;;6.50;;
249;SDS011;109;19.806;-70.704;2023-03-30T03:56:20;17.47;;;7.37;;
249;SDS011;109;19.806;-70.704;2023-03-30T03:58:54;14.33;;;7.17;;
249;SDS011;109;19.806;-70.704;2023-03-30T04:01:21;14.90;;;7.33;;
249;SDS011;109;19.806;-70.704;2023-03-30T04:03:54;20.77;;;7.40;;
249;SDS011;109;19.806;-70.704;2023-03-30T04:06:21;19.77;;;7.33;;
249;SDS011;109;19.806;-70.704;2023-03-30T04:08:54;27.33;;;8.20;;
249;SDS011;109;19.806;-70.704;2023-03-30T04:11:55;16.83;;;7.23;;
249;SDS011;109;19.806;-70.704;2023-03-30T04:14:38;16.43;;;7.43;;
249;SDS011;109;19.806;-70.704;2023-03-30T04:17:11;23.33;;;8.40;;
249;SDS011;109;19.806;-70.704;2023-03-30T04:19:52;18.17;;;7.70;;
249;SDS011;109;19.806;-70.704;2023-03-30T04:22:47;20.30;;;7.60;;
249;SDS011;109;19.806;-70.704;2023-03-30T04:25:47;19.73;;;7.10;;
249;SDS011;109;19.806;-70.704;2023-03-30T04:28:52;17.10;;;7.40;;
249;SDS011;109;19.806;-70.704;2023-03-30T04:31:39;21.00;;;7.97;;
249;SDS011;109;19.806;-70.704;2023-03-30T04:34:22;17.67;;;7.27;;
249;SDS011;109;19.806;-70.704;2023-03-30T04:37:21;15.77;;;7.73;;
249;SDS011;109;19.806;-70.704;2023-03-30T04:40:36;12.93;;;6.77;;
249;SDS011;109;19.806;-70.704;2023-03-30T04:43:29;19.10;;;7.83;;
249;SDS011;109;19.806;-70.704;2023-03-30T04:46:14;21.23;;;8.20;;
249;SDS011;109;19.806;-70.704;2023-03-30T04:49:08;25.17;;;9.40;;
249;SDS011;109;19.806;-70.704;2023-03-30T04:52:18;20.33;;;9.97;;
249;SDS011;109;19.806;-70.704;2023-03-30T04:55:15;24.40;;;10.27;;
249;SDS011;109;19.806;-70.704;2023-03-30T04:57:51;25.00;;;9.00;;
249;SDS011;109;19.806;-70.704;2023-03-30T05:00:36;17.10;;;7.87;;
249;SDS011;109;19.806;-70.704;2023-03-30T05:03:22;25.43;;;7.83;;
249;SDS011;109;19.806;-70.704;2023-03-30T05:06:24;19.87;;;8.07;;
249;SDS011;109;19.806;-70.704;2023-03-30T05:09:16;15.70;;;7.27;;
249;SDS011;109;19.806;-70.704;2023-03-30T05:12:24;20.03;;;7.60;;
249;SDS011;109;19.806;-70.704;2023-03-30T05:15:16;16.50;;;7.93;;
249;SDS011;109;19.806;-70.704;2023-03-30T05:18:09;17.53;;;7.43;;
249;SDS011;109;19.806;-70.704;2023-03-30T05:21:06;20.80;;;8.13;;
249;SDS011;109;19.806;-70.704;2023-03-30T05:23:57;22.97;;;8.20;;
249;SDS011;109;19.806;-70.704;2023-03-30T05:26:56;21.30;;;8.10;;
249;SDS011;109;19.806;-70.704;2023-03-30T05:29:47;31.13;;;8.90;;
249;SDS011;109;19.806;-70.704;2023-03-30T05:32:59;27.00;;;8.60;;
249;SDS011;109;19.806;-70.704;2023-03-30T05:35:50;18.10;;;8.00;;
249;SDS011;109;19.806;-70.704;2023-03-30T05:38:42;22.20;;;8.60;;
249;SDS011;109;19.806;-70.704;2023-03-30T05:41:21;17.20;;;8.20;;
249;SDS011;109;19.806;-70.704;2023-03-30T05:44:01;16.07;;;9.10;;
249;SDS011;109;19.806;-70.704;2023-03-30T05:46:54;19.80;;;10.17;;
249;SDS011;109;19.806;-70.704;2023-03-30T05:49:38;17.20;;;9.90;;
249;SDS011;109;19.806;-70.704;2023-03-30T05:52:32;20.37;;;9.80;;
249;SDS011;109;19.806;-70.704;2023-03-30T05:55:19;23.77;;;9.70;;
249;SDS011;109;19.806;-70.704;2023-03-30T05:58:11;19.80;;;10.10;;
249;SDS011;109;19.806;-70.704;2023-03-30T06:01:06;17.47;;;10.53;;
249;SDS011;109;19.806;-70.704;2023-03-30T06:03:43;21.50;;;9.20;;
249;SDS011;109;19.806;-70.704;2023-03-30T06:06:09;20.10;;;9.70;;
249;SDS011;109;19.806;-70.704;2023-03-30T06:08:46;15.57;;;8.97;;
249;SDS011;109;19.806;-70.704;2023-03-30T06:11:22;17.47;;;9.00;;
249;SDS011;109;19.806;-70.704;2023-03-30T06:14:06;21.97;;;9.50;;
249;SDS011;109;19.806;-70.704;2023-03-30T06:16:48;16.77;;;8.60;;
249;SDS011;109;19.806;-70.704;2023-03-30T06:19:21;15.93;;;8.63;;
249;SDS011;109;19.806;-70.704;2023-03-30T06:21:48;21.87;;;9.93;;
249;SDS011;109;19.806;-70.704;2023-03-30T06:24:59;19.67;;;8.70;;
249;SDS011;109;19.806;-70.704;2023-03-30T06:27:32;21.23;;;8.93;;
249;SDS011;109;19.806;-70.704;2023-03-30T06:30:20;17.57;;;8.63;;
249;SDS011;109;19.806;-70.704;2023-03-30T06:32:57;22.80;;;9.40;;
249;SDS011;109;19.806;-70.704;2023-03-30T06:35:37;16.13;;;9.40;;
249;SDS011;109;19.806;-70.704;2023-03-30T06:38:19;15.20;;;8.67;;
249;SDS011;109;19.806;-70.704;2023-03-30T06:41:07;15.87;;;9.20;;
249;SDS011;109;19.806;-70.704;2023-03-30T06:43:46;17.77;;;9.37;;
249;SDS011;109;19.806;-70.704;2023-03-30T06:46:14;17.13;;;9.57;;
249;SDS011;109;19.806;-70.704;2023-03-30T06:48:49;18.50;;;9.47;;
249;SDS011;109;19.806;-70.704;2023-03-30T06:51:34;15.37;;;9.60;;
249;SDS011;109;19.806;-70.704;2023-03-30T06:54:08;15.50;;;8.90;;
249;SDS011;109;19.806;-70.704;2023-03-30T06:56:36;17.03;;;9.03;;
249;SDS011;109;19.806;-70.704;2023-03-30T06:59:13;19.77;;;9.33;;
249;SDS011;109;19.806;-70.704;2023-03-30T07:02:21;16.17;;;9.40;;
249;SDS011;109;19.806;-70.704;2023-03-30T07:04:58;17.50;;;9.27;;
249;SDS011;109;19.806;-70.704;2023-03-30T07:07:44;15.40;;;8.97;;
249;SDS011;109;19.806;-70.704;2023-03-30T07:10:20;13.57;;;8.07;;
249;SDS011;109;19.806;-70.704;2023-03-30T07:12:47;13.10;;;8.30;;
249;SDS011;109;19.806;-70.704;2023-03-30T07:15:21;16.70;;;8.43;;
249;SDS011;109;19.806;-70.704;2023-03-30T07:17:57;16.03;;;8.90;;
249;SDS011;109;19.806;-70.704;2023-03-30T07:20:30;14.03;;;9.00;;
249;SDS011;109;19.806;-70.704;2023-03-30T07:23:11;17.03;;;9.53;;
249;SDS011;109;19.806;-70.704;2023-03-30T07:25:46;16.07;;;8.57;;
249;SDS011;109;19.806;-70.704;2023-03-30T07:28:16;25.73;;;10.27;;
249;SDS011;109;19.806;-70.704;2023-03-30T07:30:49;14.60;;;8.47;;
249;SDS011;109;19.806;-70.704;2023-03-30T07:33:29;14.43;;;8.77;;
249;SDS011;109;19.806;-70.704;2023-03-30T07:35:58;12.20;;;8.00;;
249;SDS011;109;19.806;-70.704;2023-03-30T07:38:31;17.83;;;9.23;;
249;SDS011;109;19.806;-70.704;2023-03-30T07:40:59;13.60;;;8.60;;
249;SDS011;109;19.806;-70.704;2023-03-30T07:43:32;22.10;;;9.80;;
249;SDS011;109;19.806;-70.704;2023-03-30T07:46:00;15.23;;;8.10;;
249;SDS011;109;19.806;-70.704;2023-03-30T07:48:37;13.70;;;8.47;;
249;SDS011;109;19.806;-70.704;2023-03-30T07:51:12;15.10;;;8.60;;
249;SDS011;109;19.806;-70.704;2023-03-30T07:53:52;14.87;;;8.40;;
249;SDS011;109;19.806;-70.704;2023-03-30T07:56:34;12.20;;;8.13;;
249;SDS011;109;19.806;-70.704;2023-03-30T07:59:11;13.23;;;8.50;;
249;SDS011;109;19.806;-70.704;2023-03-30T08:01:40;14.60;;;8.60;;
249;SDS011;109;19.806;-70.704;2023-03-30T08:04:33;14.37;;;8.10;;
249;SDS011;109;19.806;-70.704;2023-03-30T08:07:06;20.27;;;9.20;;
249;SDS011;109;19.806;-70.704;2023-03-30T08:09:33;13.90;;;8.30;;
249;SDS011;109;19.806;-70.704;2023-03-30T08:12:06;16.53;;;9.43;;
249;SDS011;109;19.806;-70.704;2023-03-30T08:14:33;16.73;;;10.10;;
249;SDS011;109;19.806;-70.704;2023-03-30T08:17:13;13.27;;;8.20;;
249;SDS011;109;19.806;-70.704;2023-03-30T08:19:45;16.40;;;8.73;;
249;SDS011;109;19.806;-70.704;2023-03-30T08:22:12;17.10;;;9.50;;
249;SDS011;109;19.806;-70.704;2023-03-30T08:24:44;17.10;;;8.33;;
249;SDS011;109;19.806;-70.704;2023-03-30T08:27:10;14.17;;;8.90;;
249;SDS011;109;19.806;-70.704;2023-03-30T08:29:43;14.37;;;9.40;;
249;SDS011;109;19.806;-70.704;2023-03-30T08:32:25;13.80;;;9.23;;
249;SDS011;109;19.806;-70.704;2023-03-30T08:34:52;14.43;;;9.00;;
249;SDS011;109;19.806;-70.704;2023-03-30T08:37:26;13.67;;;7.47;;
249;SDS011;109;19.806;-70.704;2023-03-30T08:39:53;15.10;;;8.73;;
249;SDS011;109;19.806;-70.704;2023-03-30T08:42:35;13.53;;;9.20;;
249;SDS011;109;19.806;-70.704;2023-03-30T08:45:11;16.03;;;8.27;;
249;SDS011;109;19.806;-70.704;2023-03-30T08:47:39;15.93;;;10.07;;
249;SDS011;109;19.806;-70.704;2023-03-30T08:50:31;20.93;;;9.37;;
249;SDS011;109;19.806;-70.704;2023-03-30T08:53:07;19.77;;;9.40;;
249;SDS011;109;19.806;-70.704;2023-03-30T09:00:59;15.30;;;9.87;;
249;SDS011;109;19.806;-70.704;2023-03-30T09:06:51;14.00;;;8.57;;
249;SDS011;109;19.806;-70.704;2023-03-30T09:09:29;14.17;;;9.10;;
249;SDS011;109;19.806;-70.704;2023-03-30T09:12:51;13.50;;;8.80;;
249;SDS011;109;19.806;-70.704;2023-03-30T09:15:28;17.43;;;8.93;;
249;SDS011;109;19.806;-70.704;2023-03-30T09:18:31;13.27;;;8.47;;
249;SDS011;109;19.806;-70.704;2023-03-30T09:21:10;15.53;;;8.40;;
249;SDS011;109;19.806;-70.704;2023-03-30T09:23:44;13.50;;;8.83;;
249;SDS011;109;19.806;-70.704;2023-03-30T09:26:17;18.20;;;8.63;;
249;SDS011;109;19.806;-70.704;2023-03-30T09:29:05;17.70;;;9.57;;
249;SDS011;109;19.806;-70.704;2023-03-30T09:32:07;13.10;;;8.20;;
249;SDS011;109;19.806;-70.704;2023-03-30T09:34:49;14.50;;;9.40;;
249;SDS011;109;19.806;-70.704;2023-03-30T09:37:31;17.90;;;9.57;;
249;SDS011;109;19.806;-70.704;2023-03-30T09:43:00;17.90;;;10.03;;
249;SDS011;109;19.806;-70.704;2023-03-30T09:45:42;17.93;;;8.90;;
249;SDS011;109;19.806;-70.704;2023-03-30T09:48:11;18.83;;;10.20;;
249;SDS011;109;19.806;-70.704;2023-03-30T09:50:47;23.00;;;10.10;;
249;SDS011;109;19.806;-70.704;2023-03-30T09:53:32;18.93;;;9.70;;
249;SDS011;109;19.806;-70.704;2023-03-30T09:56:18;16.13;;;10.10;;
249;SDS011;109;19.806;-70.704;2023-03-30T09:59:30;20.50;;;10.10;;
249;SDS011;109;19.806;-70.704;2023-03-30T10:07:36;18.50;;;8.60;;
249;SDS011;109;19.806;-70.704;2023-03-30T10:13:05;14.87;;;10.17;;
249;SDS011;109;19.806;-70.704;2023-03-30T10:15:39;15.63;;;9.40;;
249;SDS011;109;19.806;-70.704;2023-03-30T10:18:22;14.63;;;8.80;;
249;SDS011;109;19.806;-70.704;2023-03-30T10:43:11;16.60;;;9.60;;
249;SDS011;109;19.806;-70.704;2023-03-30T10:45:48;17.80;;;9.40;;
249;SDS011;109;19.806;-70.704;2023-03-30T10:48:23;17.10;;;9.70;;
249;SDS011;109;19.806;-70.704;2023-03-30T10:51:12;15.20;;;8.80;;
249;SDS011;109;19.806;-70.704;2023-03-30T10:54:05;23.00;;;9.37;;
249;SDS011;109;19.806;-70.704;2023-03-30T10:56:47;19.23;;;9.83;;
249;SDS011;109;19.806;-70.704;2023-03-30T11:04:57;15.13;;;10.13;;
249;SDS011;109;19.806;-70.704;2023-03-30T11:10:02;17.77;;;10.50;;
249;SDS011;109;19.806;-70.704;2023-03-30T11:12:34;27.17;;;11.17;;
249;SDS011;109;19.806;-70.704;2023-03-30T11:15:17;21.40;;;12.30;;
249;SDS011;109;19.806;-70.704;2023-03-30T11:20:34;20.70;;;13.13;;
249;SDS011;109;19.806;-70.704;2023-03-30T11:23:13;17.70;;;11.60;;
249;SDS011;109;19.806;-70.704;2023-03-30T11:25:48;21.23;;;11.30;;
249;SDS011;109;19.806;-70.704;2023-03-30T11:34:24;20.93;;;9.30;;
249;SDS011;109;19.806;-70.704;2023-03-30T11:40:03;18.40;;;9.67;;
249;SDS011;109;19.806;-70.704;2023-03-30T11:42:42;18.10;;;9.47;;
249;SDS011;109;19.806;-70.704;2023-03-30T11:45:15;15.47;;;9.47;;
249;SDS011;109;19.806;-70.704;2023-03-30T11:53:33;18.17;;;8.40;;
249;SDS011;109;19.806;-70.704;2023-03-30T11:56:09;15.47;;;8.80;;
249;SDS011;109;19.806;-70.704;2023-03-30T11:58:47;16.80;;;8.47;;
249;SDS011;109;19.806;-70.704;2023-03-30T12:01:25;19.97;;;9.90;;
249;SDS011;109;19.806;-70.704;2023-03-30T12:06:41;20.00;;;9.10;;
249;SDS011;109;19.806;-70.704;2023-03-30T12:09:28;12.10;;;9.20;;
249;SDS011;109;19.806;-70.704;2023-03-30T12:12:13;24.23;;;9.83;;
249;SDS011;109;19.806;-70.704;2023-03-30T12:14:52;16.30;;;9.67;;
249;SDS011;109;19.806;-70.704;2023-03-30T12:17:29;17.67;;;10.17;;
249;SDS011;109;19.806;-70.704;2023-03-30T12:20:02;20.53;;;10.90;;
249;SDS011;109;19.806;-70.704;2023-03-30T12:22:52;21.53;;;11.97;;
249;SDS011;109;19.806;-70.704;2023-03-30T12:30:41;22.67;;;9.90;;
249;SDS011;109;19.806;-70.704;2023-03-30T12:33:36;19.13;;;9.23;;
249;SDS011;109;19.806;-70.704;2023-03-30T12:36:24;31.30;;;10.53;;
249;SDS011;109;19.806;-70.704;2023-03-30T12:39:15;12.10;;;8.70;;
249;SDS011;109;19.806;-70.704;2023-03-30T12:42:02;15.33;;;8.67;;
249;SDS011;109;19.806;-70.704;2023-03-30T12:50:42;13.03;;;8.03;;
249;SDS011;109;19.806;-70.704;2023-03-30T12:56:31;15.73;;;9.00;;
249;SDS011;109;19.806;-70.704;2023-03-30T13:08:15;17.17;;;10.63;;
249;SDS011;109;19.806;-70.704;2023-03-30T13:11:18;25.80;;;11.93;;
249;SDS011;109;19.806;-70.704;2023-03-30T13:13:48;15.93;;;10.83;;
249;SDS011;109;19.806;-70.704;2023-03-30T13:19:18;21.70;;;12.63;;
249;SDS011;109;19.806;-70.704;2023-03-30T13:27:28;26.20;;;11.90;;
249;SDS011;109;19.806;-70.704;2023-03-30T13:32:55;15.33;;;11.37;;
249;SDS011;109;19.806;-70.704;2023-03-30T13:35:33;21.27;;;11.90;;
249;SDS011;109;19.806;-70.704;2023-03-30T13:41:09;19.80;;;12.10;;
249;SDS011;109;19.806;-70.704;2023-03-30T13:44:10;22.83;;;12.60;;
249;SDS011;109;19.806;-70.704;2023-03-30T13:50:00;16.13;;;11.10;;
249;SDS011;109;19.806;-70.704;2023-03-30T13:52:33;27.83;;;12.20;;
249;SDS011;109;19.806;-70.704;2023-03-30T13:55:04;36.97;;;12.00;;
249;SDS011;109;19.806;-70.704;2023-03-30T13:57:40;18.73;;;11.07;;
249;SDS011;109;19.806;-70.704;2023-03-30T14:02:47;13.90;;;10.10;;
249;SDS011;109;19.806;-70.704;2023-03-30T14:05:19;32.40;;;11.07;;
249;SDS011;109;19.806;-70.704;2023-03-30T14:07:47;26.23;;;10.63;;
249;SDS011;109;19.806;-70.704;2023-03-30T14:10:19;23.33;;;10.23;;
249;SDS011;109;19.806;-70.704;2023-03-30T14:12:47;17.30;;;9.97;;
249;SDS011;109;19.806;-70.704;2023-03-30T14:15:20;17.50;;;8.20;;
249;SDS011;109;19.806;-70.704;2023-03-30T14:17:58;24.50;;;9.33;;
249;SDS011;109;19.806;-70.704;2023-03-30T14:23:36;23.50;;;9.57;;
249;SDS011;109;19.806;-70.704;2023-03-30T14:28:47;19.43;;;7.73;;
249;SDS011;109;19.806;-70.704;2023-03-30T14:31:16;17.90;;;7.47;;
249;SDS011;109;19.806;-70.704;2023-03-30T14:33:44;20.80;;;7.20;;
249;SDS011;109;19.806;-70.704;2023-03-30T14:36:13;22.73;;;7.03;;
249;SDS011;109;19.806;-70.704;2023-03-30T14:38:45;27.13;;;8.03;;
249;SDS011;109;19.806;-70.704;2023-03-30T14:41:24;17.23;;;5.27;;
249;SDS011;109;19.806;-70.704;2023-03-30T14:46:18;27.40;;;8.70;;
249;SDS011;109;19.806;-70.704;2023-03-30T14:48:47;19.03;;;7.73;;
249;SDS011;109;19.806;-70.704;2023-03-30T14:51:21;27.20;;;9.03;;
249;SDS011;109;19.806;-70.704;2023-03-30T14:53:50;18.80;;;7.30;;
249;SDS011;109;19.806;-70.704;2023-03-30T14:56:18;20.83;;;7.87;;
249;SDS011;109;19.806;-70.704;2023-03-30T14:58:48;16.80;;;7.57;;
249;SDS011;109;19.806;-70.704;2023-03-30T15:01:17;17.83;;;8.73;;
249;SDS011;109;19.806;-70.704;2023-03-30T15:04:06;34.03;;;9.80;;
249;SDS011;109;19.806;-70.704;2023-03-30T15:06:35;19.80;;;7.30;;
249;SDS011;109;19.806;-70.704;2023-03-30T15:09:03;20.20;;;7.70;;
249;SDS011;109;19.806;-70.704;2023-03-30T15:11:38;30.67;;;10.07;;
249;SDS011;109;19.806;-70.704;2023-03-30T15:14:09;30.77;;;9.00;;
249;SDS011;109;19.806;-70.704;2023-03-30T15:16:43;23.20;;;7.63;;
249;SDS011;109;19.806;-70.704;2023-03-30T15:22:12;26.67;;;7.53;;
249;SDS011;109;19.806;-70.704;2023-03-30T15:24:49;27.03;;;6.40;;
249;SDS011;109;19.806;-70.704;2023-03-30T15:27:16;24.43;;;6.77;;
249;SDS011;109;19.806;-70.704;2023-03-30T15:29:43;24.00;;;6.70;;
249;SDS011;109;19.806;-70.704;2023-03-30T15:32:17;23.67;;;6.50;;
249;SDS011;109;19.806;-70.704;2023-03-30T15:34:57;15.73;;;6.53;;
249;SDS011;109;19.806;-70.704;2023-03-30T15:37:29;18.13;;;6.70;;
249;SDS011;109;19.806;-70.704;2023-03-30T15:39:57;28.67;;;7.87;;
249;SDS011;109;19.806;-70.704;2023-03-30T15:42:27;16.73;;;6.90;;
249;SDS011;109;19.806;-70.704;2023-03-30T15:45:02;26.50;;;7.20;;
249;SDS011;109;19.806;-70.704;2023-03-30T15:47:34;18.23;;;6.70;;
249;SDS011;109;19.806;-70.704;2023-03-30T15:50:01;20.30;;;7.60;;
249;SDS011;109;19.806;-70.704;2023-03-30T15:55:06;22.30;;;8.50;;
249;SDS011;109;19.806;-70.704;2023-03-30T15:57:40;23.30;;;8.87;;
249;SDS011;109;19.806;-70.704;2023-03-30T16:00:20;25.63;;;9.70;;
249;SDS011;109;19.806;-70.704;2023-03-30T16:02:59;16.90;;;7.90;;
249;SDS011;109;19.806;-70.704;2023-03-30T16:05:27;21.60;;;7.40;;
249;SDS011;109;19.806;-70.704;2023-03-30T16:07:55;17.63;;;7.67;;
249;SDS011;109;19.806;-70.704;2023-03-30T16:10:28;23.57;;;7.47;;
249;SDS011;109;19.806;-70.704;2023-03-30T16:12:56;18.13;;;6.90;;
249;SDS011;109;19.806;-70.704;2023-03-30T16:15:25;19.07;;;6.83;;
249;SDS011;109;19.806;-70.704;2023-03-30T16:17:56;20.80;;;6.97;;
249;SDS011;109;19.806;-70.704;2023-03-30T16:20:24;20.00;;;7.10;;
249;SDS011;109;19.806;-70.704;2023-03-30T16:22:52;21.40;;;8.33;;
249;SDS011;109;19.806;-70.704;2023-03-30T16:25:20;31.70;;;7.50;;
249;SDS011;109;19.806;-70.704;2023-03-30T16:27:48;26.23;;;8.63;;
249;SDS011;109;19.806;-70.704;2023-03-30T16:33:02;33.10;;;9.17;;
249;SDS011;109;19.806;-70.704;2023-03-30T16:35:29;26.30;;;9.53;;
249;SDS011;109;19.806;-70.704;2023-03-30T16:37:56;27.43;;;9.07;;
249;SDS011;109;19.806;-70.704;2023-03-30T16:43:05;34.10;;;10.13;;
249;SDS011;109;19.806;-70.704;2023-03-30T16:45:32;28.97;;;9.93;;
249;SDS011;109;19.806;-70.704;2023-03-30T16:48:00;40.07;;;11.17;;
249;SDS011;109;19.806;-70.704;2023-03-30T16:53:10;34.63;;;10.83;;
249;SDS011;109;19.806;-70.704;2023-03-30T16:55:37;35.47;;;9.83;;
249;SDS011;109;19.806;-70.704;2023-03-30T16:58:05;39.27;;;10.47;;
249;SDS011;109;19.806;-70.704;2023-03-30T17:01:07;29.20;;;9.73;;
249;SDS011;109;19.806;-70.704;2023-03-30T17:03:28;30.47;;;9.80;;
249;SDS011;109;19.806;-70.704;2023-03-30T17:05:56;22.63;;;10.73;;
249;SDS011;109;19.806;-70.704;2023-03-30T17:08:24;25.87;;;9.50;;
249;SDS011;109;19.806;-70.704;2023-03-30T17:10:53;26.53;;;9.43;;
249;SDS011;109;19.806;-70.704;2023-03-30T17:13:22;37.57;;;9.37;;
249;SDS011;109;19.806;-70.704;2023-03-30T17:15:49;26.50;;;7.70;;
249;SDS011;109;19.806;-70.704;2023-03-30T17:18:18;42.10;;;8.03;;
249;SDS011;109;19.806;-70.704;2023-03-30T17:20:48;25.93;;;7.60;;
249;SDS011;109;19.806;-70.704;2023-03-30T17:23:22;21.03;;;7.00;;
249;SDS011;109;19.806;-70.704;2023-03-30T17:25:50;22.40;;;6.50;;
249;SDS011;109;19.806;-70.704;2023-03-30T17:28:20;40.47;;;8.00;;
249;SDS011;109;19.806;-70.704;2023-03-30T17:30:49;24.00;;;7.60;;
249;SDS011;109;19.806;-70.704;2023-03-30T17:33:17;28.70;;;8.73;;
249;SDS011;109;19.806;-70.704;2023-03-30T17:35:45;26.63;;;8.77;;
249;SDS011;109;19.806;-70.704;2023-03-30T17:38:16;27.63;;;8.33;;
249;SDS011;109;19.806;-70.704;2023-03-30T17:40:42;48.17;;;10.23;;
249;SDS011;109;19.806;-70.704;2023-03-30T17:43:10;28.93;;;9.60;;
249;SDS011;109;19.806;-70.704;2023-03-30T17:45:37;32.07;;;9.07;;
249;SDS011;109;19.806;-70.704;2023-03-30T17:48:05;26.53;;;9.40;;
249;SDS011;109;19.806;-70.704;2023-03-30T17:50:37;20.00;;;8.03;;
249;SDS011;109;19.806;-70.704;2023-03-30T17:53:08;22.70;;;9.10;;
249;SDS011;109;19.806;-70.704;2023-03-30T17:55:39;22.93;;;9.23;;
249;SDS011;109;19.806;-70.704;2023-03-30T18:00:44;27.93;;;10.40;;
249;SDS011;109;19.806;-70.704;2023-03-30T18:03:12;25.60;;;10.20;;
249;SDS011;109;19.806;-70.704;2023-03-30T18:05:43;24.13;;;10.13;;
249;SDS011;109;19.806;-70.704;2023-03-30T18:08:17;30.60;;;11.90;;
249;SDS011;109;19.806;-70.704;2023-03-30T18:10:46;41.87;;;13.00;;
249;SDS011;109;19.806;-70.704;2023-03-30T18:13:16;26.80;;;12.70;;
249;SDS011;109;19.806;-70.704;2023-03-30T18:15:44;40.20;;;11.50;;
249;SDS011;109;19.806;-70.704;2023-03-30T18:18:14;27.43;;;11.53;;
249;SDS011;109;19.806;-70.704;2023-03-30T18:20:47;25.33;;;11.87;;
249;SDS011;109;19.806;-70.704;2023-03-30T18:23:18;27.20;;;10.80;;
249;SDS011;109;19.806;-70.704;2023-03-30T18:25:49;31.10;;;10.13;;
249;SDS011;109;19.806;-70.704;2023-03-30T18:28:20;25.20;;;10.80;;
249;SDS011;109;19.806;-70.704;2023-03-30T18:30:49;26.40;;;11.03;;
249;SDS011;109;19.806;-70.704;2023-03-30T18:33:17;38.30;;;10.73;;
249;SDS011;109;19.806;-70.704;2023-03-30T18:35:45;26.00;;;9.87;;
249;SDS011;109;19.806;-70.704;2023-03-30T18:38:14;37.87;;;11.10;;
249;SDS011;109;19.806;-70.704;2023-03-30T18:40:43;34.93;;;9.43;;
249;SDS011;109;19.806;-70.704;2023-03-30T18:43:13;31.87;;;9.70;;
249;SDS011;109;19.806;-70.704;2023-03-30T18:45:41;22.50;;;8.93;;
249;SDS011;109;19.806;-70.704;2023-03-30T18:48:11;31.43;;;8.63;;
249;SDS011;109;19.806;-70.704;2023-03-30T18:50:40;32.70;;;7.50;;
249;SDS011;109;19.806;-70.704;2023-03-30T18:53:18;20.37;;;5.90;;
249;SDS011;109;19.806;-70.704;2023-03-30T18:55:46;26.47;;;5.50;;
249;SDS011;109;19.806;-70.704;2023-03-30T18:58:18;22.50;;;5.10;;
249;SDS011;109;19.806;-70.704;2023-03-30T19:00:46;22.90;;;5.10;;